Terminal Aerodrome Forecast
Issued by NWS Upton, NY

Home | Current Version | Previous Version | Text Only | Print | Product List | Glossary On
Versions: 1 2 3 4 5 6 7 8 9 10 11 12 13 14 15 16 17 18 19 20 21 22 23 24 25 26
000
FTUS41 KOKX 312300
TAFISP
TAF
KISP 312320Z 0100/0124 30012G21KT P6SM SKC
     FM010200 29010KT P6SM BKN250
     FM010600 28006KT P6SM BKN250
     FM011600 25005KT P6SM SCT040 BKN100=

USA.gov is the U.S. government's official web portal to all federal, state and local government web resources and services.